sensor_id;sensor_type;location;lat;lon;timestamp;pressure;altitude;pressure_sealevel;temperature;humidity
48630;BME280;34426;52.180;4.462;2023-09-19T00:01:24;100751.13;;;16.17;60.02
48630;BME280;34426;52.180;4.462;2023-09-19T00:03:51;100772.25;;;16.20;60.33
48630;BME280;34426;52.180;4.462;2023-09-19T00:06:16;100750.22;;;16.22;60.25
48630;BME280;34426;52.180;4.462;2023-09-19T00:08:42;100752.72;;;16.23;60.38
48630;BME280;34426;52.180;4.462;2023-09-19T00:11:07;100761.19;;;16.23;60.66
48630;BME280;34426;52.180;4.462;2023-09-19T00:13:33;100760.34;;;16.23;60.92
48630;BME280;34426;52.180;4.462;2023-09-19T00:15:58;100754.19;;;16.21;61.42
48630;BME280;34426;52.180;4.462;2023-09-19T00:18:24;100765.53;;;16.16;61.75
48630;BME280;34426;52.180;4.462;2023-09-19T00:20:52;100760.44;;;16.18;60.90
48630;BME280;34426;52.180;4.462;2023-09-19T00:23:17;100775.38;;;16.18;60.80
48630;BME280;34426;52.180;4.462;2023-09-19T00:25:43;100757.00;;;16.21;61.58
48630;BME280;34426;52.180;4.462;2023-09-19T00:28:08;100764.31;;;16.22;62.35
48630;BME280;34426;52.180;4.462;2023-09-19T00:30:34;100775.59;;;16.22;61.82
48630;BME280;34426;52.180;4.462;2023-09-19T00:32:59;100780.41;;;16.21;61.19
48630;BME280;34426;52.180;4.462;2023-09-19T00:35:25;100772.25;;;16.20;61.67
48630;BME280;34426;52.180;4.462;2023-09-19T00:37:52;100776.75;;;16.21;62.48
48630;BME280;34426;52.180;4.462;2023-09-19T00:40:18;100780.09;;;16.23;63.23
48630;BME280;34426;52.180;4.462;2023-09-19T00:42:44;100767.66;;;16.24;63.82
48630;BME280;34426;52.180;4.462;2023-09-19T00:45:11;100763.72;;;16.25;64.19
48630;BME280;34426;52.180;4.462;2023-09-19T00:47:37;100757.44;;;16.28;64.35
48630;BME280;34426;52.180;4.462;2023-09-19T00:50:04;100759.66;;;16.31;64.64
48630;BME280;34426;52.180;4.462;2023-09-19T00:52:30;100757.66;;;16.32;64.27
48630;BME280;34426;52.180;4.462;2023-09-19T00:54:57;100761.03;;;16.34;64.27
48630;BME280;34426;52.180;4.462;2023-09-19T00:57:23;100762.16;;;16.33;65.07
48630;BME280;34426;52.180;4.462;2023-09-19T00:59:50;100772.63;;;16.32;65.55
48630;BME280;34426;52.180;4.462;2023-09-19T01:02:18;100781.94;;;16.33;63.91
48630;BME280;34426;52.180;4.462;2023-09-19T01:04:44;100778.19;;;16.37;64.30
48630;BME280;34426;52.180;4.462;2023-09-19T01:07:10;100782.69;;;16.38;65.19
48630;BME280;34426;52.180;4.462;2023-09-19T01:09:36;100783.81;;;16.37;65.92
48630;BME280;34426;52.180;4.462;2023-09-19T01:12:04;100782.16;;;16.36;66.43
48630;BME280;34426;52.180;4.462;2023-09-19T01:14:38;100787.88;;;16.31;66.67
48630;BME280;34426;52.180;4.462;2023-09-19T01:17:11;100782.31;;;16.26;66.33
48630;BME280;34426;52.180;4.462;2023-09-19T01:19:55;100782.94;;;16.23;64.96
48630;BME280;34426;52.180;4.462;2023-09-19T01:22:33;100777.38;;;16.18;65.25
48630;BME280;34426;52.180;4.462;2023-09-19T01:25:20;100782.72;;;16.19;66.04
48630;BME280;34426;52.180;4.462;2023-09-19T01:28:07;100783.53;;;16.20;66.22
48630;BME280;34426;52.180;4.462;2023-09-19T01:30:41;100813.97;;;16.23;66.68
48630;BME280;34426;52.180;4.462;2023-09-19T01:33:09;100786.28;;;16.25;67.67
48630;BME280;34426;52.180;4.462;2023-09-19T01:35:34;100784.00;;;16.27;68.41
48630;BME280;34426;52.180;4.462;2023-09-19T01:38:00;100789.41;;;16.23;68.49
48630;BME280;34426;52.180;4.462;2023-09-19T01:40:25;100793.38;;;16.22;66.89
48630;BME280;34426;52.180;4.462;2023-09-19T01:42:57;100790.03;;;16.20;66.12
48630;BME280;34426;52.180;4.462;2023-09-19T01:45:28;100786.91;;;16.22;65.14
48630;BME280;34426;52.180;4.462;2023-09-19T01:48:05;100821.00;;;16.25;66.86
48630;BME280;34426;52.180;4.462;2023-09-19T01:50:42;100788.66;;;16.18;68.63
48630;BME280;34426;52.180;4.462;2023-09-19T01:53:15;100796.06;;;16.14;69.27
48630;BME280;34426;52.180;4.462;2023-09-19T01:55:48;100792.69;;;16.12;69.86
48630;BME280;34426;52.180;4.462;2023-09-19T01:58:18;100791.03;;;16.11;69.95
48630;BME280;34426;52.180;4.462;2023-09-19T02:00:47;100785.38;;;16.11;70.23
48630;BME280;34426;52.180;4.462;2023-09-19T02:03:14;100783.69;;;16.10;69.90
48630;BME280;34426;52.180;4.462;2023-09-19T02:05:40;100799.50;;;16.11;70.23
48630;BME280;34426;52.180;4.462;2023-09-19T02:08:06;100776.91;;;16.11;68.72
48630;BME280;34426;52.180;4.462;2023-09-19T02:10:31;100787.06;;;16.12;68.56
48630;BME280;34426;52.180;4.462;2023-09-19T02:12:57;100785.38;;;16.11;68.48
48630;BME280;34426;52.180;4.462;2023-09-19T02:15:22;100792.47;;;16.08;68.08
48630;BME280;34426;52.180;4.462;2023-09-19T02:17:48;100792.25;;;16.05;66.65
48630;BME280;34426;52.180;4.462;2023-09-19T02:20:15;100802.38;;;16.06;66.19
48630;BME280;34426;52.180;4.462;2023-09-19T02:22:41;100797.28;;;16.08;66.14
48630;BME280;34426;52.180;4.462;2023-09-19T02:25:06;100797.28;;;16.08;66.16
48630;BME280;34426;52.180;4.462;2023-09-19T02:27:32;100793.09;;;16.05;67.15
48630;BME280;34426;52.180;4.462;2023-09-19T02:29:58;100807.72;;;16.07;67.63
48630;BME280;34426;52.180;4.462;2023-09-19T02:32:23;100804.59;;;16.09;67.92
48630;BME280;34426;52.180;4.462;2023-09-19T02:34:49;100801.78;;;16.09;66.66
48630;BME280;34426;52.180;4.462;2023-09-19T02:37:16;100789.88;;;16.12;66.04
48630;BME280;34426;52.180;4.462;2023-09-19T02:39:41;100805.06;;;16.16;65.00
48630;BME280;34426;52.180;4.462;2023-09-19T02:42:07;100802.78;;;16.18;65.87
48630;BME280;34426;52.180;4.462;2023-09-19T02:44:32;100797.66;;;16.20;66.12
48630;BME280;34426;52.180;4.462;2023-09-19T02:46:58;100802.16;;;16.21;64.37
48630;BME280;34426;52.180;4.462;2023-09-19T02:49:23;100807.19;;;16.24;63.55
48630;BME280;34426;52.180;4.462;2023-09-19T02:51:48;100801.53;;;16.24;63.96
48630;BME280;34426;52.180;4.462;2023-09-19T02:54:15;100787.97;;;16.26;63.99
48630;BME280;34426;52.180;4.462;2023-09-19T02:56:41;100792.78;;;16.25;64.88
48630;BME280;34426;52.180;4.462;2023-09-19T02:59:06;100796.44;;;16.26;64.68
48630;BME280;34426;52.180;4.462;2023-09-19T03:01:32;100805.72;;;16.26;65.25
48630;BME280;34426;52.180;4.462;2023-09-19T03:03:57;100806.66;;;16.22;67.07
48630;BME280;34426;52.180;4.462;2023-09-19T03:06:23;100799.78;;;16.09;68.20
48630;BME280;34426;52.180;4.462;2023-09-19T03:08:48;100797.50;;;16.11;68.54
48630;BME280;34426;52.180;4.462;2023-09-19T03:11:15;100802.22;;;16.16;68.03
48630;BME280;34426;52.180;4.462;2023-09-19T03:13:41;100796.50;;;16.21;68.32
48630;BME280;34426;52.180;4.462;2023-09-19T03:16:06;100792.31;;;16.18;68.09
48630;BME280;34426;52.180;4.462;2023-09-19T03:18:33;100785.00;;;16.17;68.09
48630;BME280;34426;52.180;4.462;2023-09-19T03:20:59;100787.81;;;16.17;69.02
48630;BME280;34426;52.180;4.462;2023-09-19T03:23:24;100780.34;;;16.08;69.72
48630;BME280;34426;52.180;4.462;2023-09-19T03:25:49;100795.78;;;15.96;73.92
48630;BME280;34426;52.180;4.462;2023-09-19T03:28:16;100779.91;;;15.63;74.38
48630;BME280;34426;52.180;4.462;2023-09-19T03:30:42;100792.03;;;15.40;74.21
48630;BME280;34426;52.180;4.462;2023-09-19T03:33:07;100789.28;;;15.35;72.76
48630;BME280;34426;52.180;4.462;2023-09-19T03:35:33;100810.63;;;15.41;71.48
48630;BME280;34426;52.180;4.462;2023-09-19T03:37:58;100819.34;;;15.44;71.13
48630;BME280;34426;52.180;4.462;2023-09-19T03:40:24;100815.31;;;15.50;70.25
48630;BME280;34426;52.180;4.462;2023-09-19T03:42:49;100804.81;;;15.56;69.94
48630;BME280;34426;52.180;4.462;2023-09-19T03:45:16;100796.81;;;15.63;70.13
48630;BME280;34426;52.180;4.462;2023-09-19T03:47:42;100819.84;;;15.70;69.70
48630;BME280;34426;52.180;4.462;2023-09-19T03:50:08;100818.03;;;15.79;68.59
48630;BME280;34426;52.180;4.462;2023-09-19T03:52:34;100814.84;;;15.86;68.14
48630;BME280;34426;52.180;4.462;2023-09-19T03:54:59;100810.56;;;15.88;69.19
48630;BME280;34426;52.180;4.462;2023-09-19T03:57:25;100807.22;;;15.86;69.67
48630;BME280;34426;52.180;4.462;2023-09-19T03:59:50;100811.19;;;15.85;68.71
48630;BME280;34426;52.180;4.462;2023-09-19T04:02:17;100823.06;;;15.82;67.11
48630;BME280;34426;52.180;4.462;2023-09-19T04:04:42;100827.63;;;15.78;66.12
48630;BME280;34426;52.180;4.462;2023-09-19T04:07:08;100823.06;;;15.82;65.74
48630;BME280;34426;52.180;4.462;2023-09-19T04:09:33;100832.06;;;15.84;65.67
48630;BME280;34426;52.180;4.462;2023-09-19T04:11:59;100820.72;;;15.89;65.50
48630;BME280;34426;52.180;4.462;2023-09-19T04:14:24;100823.53;;;15.89;66.37
48630;BME280;34426;52.180;4.462;2023-09-19T04:16:50;100833.38;;;15.92;66.69
48630;BME280;34426;52.180;4.462;2023-09-19T04:19:16;100807.38;;;15.95;66.05
48630;BME280;34426;52.180;4.462;2023-09-19T04:21:42;100835.28;;;15.96;66.41
48630;BME280;34426;52.180;4.462;2023-09-19T04:24:07;100840.84;;;16.02;66.97
48630;BME280;34426;52.180;4.462;2023-09-19T04:26:33;100834.38;;;16.01;67.50
48630;BME280;34426;52.180;4.462;2023-09-19T04:28:58;100831.56;;;16.01;68.34
48630;BME280;34426;52.180;4.462;2023-09-19T04:31:24;100836.97;;;15.98;68.81
48630;BME280;34426;52.180;4.462;2023-09-19T04:33:50;100840.63;;;15.98;68.63
48630;BME280;34426;52.180;4.462;2023-09-19T04:36:17;100830.47;;;15.97;68.14
48630;BME280;34426;52.180;4.462;2023-09-19T04:38:43;100834.13;;;15.98;67.50
48630;BME280;34426;52.180;4.462;2023-09-19T04:41:08;100843.75;;;15.96;67.57
48630;BME280;34426;52.180;4.462;2023-09-19T04:43:34;100838.09;;;15.96;68.00
48630;BME280;34426;52.180;4.462;2023-09-19T04:45:59;100842.59;;;15.98;67.72
48630;BME280;34426;52.180;4.462;2023-09-19T04:48:24;100845.44;;;15.98;67.21
48630;BME280;34426;52.180;4.462;2023-09-19T04:50:50;100839.00;;;15.92;67.31
48630;BME280;34426;52.180;4.462;2023-09-19T04:53:17;100836.50;;;15.90;67.37
48630;BME280;34426;52.180;4.462;2023-09-19T04:55:42;100841.00;;;15.91;67.67
48630;BME280;34426;52.180;4.462;2023-09-19T04:58:08;100843.22;;;15.94;68.32
48630;BME280;34426;52.180;4.462;2023-09-19T05:00:33;100846.56;;;15.96;68.56
48630;BME280;34426;52.180;4.462;2023-09-19T05:02:58;100840.31;;;16.00;67.76
48630;BME280;34426;52.180;4.462;2023-09-19T05:05:24;100844.88;;;15.95;68.00
48630;BME280;34426;52.180;4.462;2023-09-19T05:07:50;100824.59;;;15.93;68.14
48630;BME280;34426;52.180;4.462;2023-09-19T05:10:16;100832.53;;;15.91;67.71
48630;BME280;34426;52.180;4.462;2023-09-19T05:12:42;100832.31;;;15.88;68.39
48630;BME280;34426;52.180;4.462;2023-09-19T05:15:08;100841.06;;;15.86;68.89
48630;BME280;34426;52.180;4.462;2023-09-19T05:17:34;100841.06;;;15.86;68.43
48630;BME280;34426;52.180;4.462;2023-09-19T05:20:00;100836.25;;;15.87;68.32
48630;BME280;34426;52.180;4.462;2023-09-19T05:22:26;100838.53;;;15.85;67.24
48630;BME280;34426;52.180;4.462;2023-09-19T05:24:52;100833.22;;;15.83;67.32
48630;BME280;34426;52.180;4.462;2023-09-19T05:27:19;100833.50;;;15.82;65.63
48630;BME280;34426;52.180;4.462;2023-09-19T05:29:44;100842.81;;;15.82;65.44
48630;BME280;34426;52.180;4.462;2023-09-19T05:32:10;100836.63;;;15.80;65.64
48630;BME280;34426;52.180;4.462;2023-09-19T05:34:35;100840.84;;;15.83;65.59
48630;BME280;34426;52.180;4.462;2023-09-19T05:37:01;100837.72;;;15.84;66.14
48630;BME280;34426;52.180;4.462;2023-09-19T05:39:26;100845.03;;;15.85;66.99
48630;BME280;34426;52.180;4.462;2023-09-19T05:41:52;100845.03;;;15.85;67.64
48630;BME280;34426;52.180;4.462;2023-09-19T05:44:19;100864.78;;;15.85;68.12
48630;BME280;34426;52.180;4.462;2023-09-19T05:46:44;100858.00;;;15.86;68.74
48630;BME280;34426;52.180;4.462;2023-09-19T05:49:10;100869.88;;;15.83;67.83
48630;BME280;34426;52.180;4.462;2023-09-19T05:51:35;100858.59;;;15.83;67.99
48630;BME280;34426;52.180;4.462;2023-09-19T05:54:01;100850.66;;;15.85;68.11
48630;BME280;34426;52.180;4.462;2023-09-19T05:56:26;100858.00;;;15.86;68.59
48630;BME280;34426;52.180;4.462;2023-09-19T05:58:51;100843.28;;;15.89;69.42
48630;BME280;34426;52.180;4.462;2023-09-19T06:01:18;100844.44;;;15.88;70.55
48630;BME280;34426;52.180;4.462;2023-09-19T06:03:44;100858.69;;;15.97;71.04
48630;BME280;34426;52.180;4.462;2023-09-19T06:06:09;100859.75;;;16.01;71.14
48630;BME280;34426;52.180;4.462;2023-09-19T06:08:35;100862.47;;;16.06;70.72
48630;BME280;34426;52.180;4.462;2023-09-19T06:11:00;100849.75;;;16.09;68.92
48630;BME280;34426;52.180;4.462;2023-09-19T06:13:27;100852.50;;;16.14;67.85
48630;BME280;34426;52.180;4.462;2023-09-19T06:15:54;100868.22;;;16.20;66.93
48630;BME280;34426;52.180;4.462;2023-09-19T06:18:21;100866.16;;;16.25;67.25
48630;BME280;34426;52.180;4.462;2023-09-19T06:20:47;100852.28;;;16.29;67.08
48630;BME280;34426;52.180;4.462;2023-09-19T06:23:12;100873.09;;;16.33;66.46
48630;BME280;34426;52.180;4.462;2023-09-19T06:25:38;100876.75;;;16.34;65.73
48630;BME280;34426;52.180;4.462;2023-09-19T06:28:03;100885.84;;;16.30;65.53
48630;BME280;34426;52.180;4.462;2023-09-19T06:30:29;100878.22;;;16.31;65.89
48630;BME280;34426;52.180;4.462;2023-09-19T06:32:58;100879.97;;;16.27;65.26
48630;BME280;34426;52.180;4.462;2023-09-19T06:35:25;100883.31;;;16.29;64.74
48630;BME280;34426;52.180;4.462;2023-09-19T06:37:51;100871.41;;;16.32;65.56
48630;BME280;34426;52.180;4.462;2023-09-19T06:40:16;100880.50;;;16.29;66.10
48630;BME280;34426;52.180;4.462;2023-09-19T06:42:43;100880.41;;;16.34;66.36
48630;BME280;34426;52.180;4.462;2023-09-19T06:45:09;100876.47;;;16.35;66.40
48630;BME280;34426;52.180;4.462;2023-09-19T06:47:35;100883.78;;;16.36;66.53
48630;BME280;34426;52.180;4.462;2023-09-19T06:50:00;100881.50;;;16.38;67.19
48630;BME280;34426;52.180;4.462;2023-09-19T06:52:27;100893.84;;;16.42;67.52
48630;BME280;34426;52.180;4.462;2023-09-19T06:54:53;100877.75;;;16.43;67.49
48630;BME280;34426;52.180;4.462;2023-09-19T06:57:18;100879.31;;;16.49;66.41
48630;BME280;34426;52.180;4.462;2023-09-19T06:59:44;100886.94;;;16.48;65.73
48630;BME280;34426;52.180;4.462;2023-09-19T07:02:09;100883.50;;;16.51;65.60
48630;BME280;34426;52.180;4.462;2023-09-19T07:04:35;100880.91;;;16.55;65.35
48630;BME280;34426;52.180;4.462;2023-09-19T07:07:00;100886.78;;;16.58;65.83
48630;BME280;34426;52.180;4.462;2023-09-19T07:09:27;100881.06;;;16.63;65.18
48630;BME280;34426;52.180;4.462;2023-09-19T07:11:52;100878.00;;;16.60;65.41
48630;BME280;34426;52.180;4.462;2023-09-19T07:14:18;100887.81;;;16.68;65.04
48630;BME280;34426;52.180;4.462;2023-09-19T07:16:43;100871.09;;;16.71;64.68
48630;BME280;34426;52.180;4.462;2023-09-19T07:19:09;100878.09;;;16.74;63.82
48630;BME280;34426;52.180;4.462;2023-09-19T07:21:34;100884.91;;;16.73;63.31
48630;BME280;34426;52.180;4.462;2023-09-19T07:24:00;100884.38;;;16.71;63.14
48630;BME280;34426;52.180;4.462;2023-09-19T07:26:27;100897.25;;;16.77;62.89
48630;BME280;34426;52.180;4.462;2023-09-19T07:28:52;100887.03;;;16.81;63.16
48630;BME280;34426;52.180;4.462;2023-09-19T07:31:18;100885.25;;;16.85;63.81
48630;BME280;34426;52.180;4.462;2023-09-19T07:33:43;100889.16;;;16.89;63.32
48630;BME280;34426;52.180;4.462;2023-09-19T07:36:12;100878.34;;;16.91;63.07
48630;BME280;34426;52.180;4.462;2023-09-19T07:38:37;100887.25;;;16.98;63.26
48630;BME280;34426;52.180;4.462;2023-09-19T07:41:03;100891.16;;;17.02;63.89
48630;BME280;34426;52.180;4.462;2023-09-19T07:43:30;100889.38;;;17.06;64.57
48630;BME280;34426;52.180;4.462;2023-09-19T07:45:55;100906.09;;;16.89;70.00
48630;BME280;34426;52.180;4.462;2023-09-19T07:48:20;100913.91;;;16.78;72.62
48630;BME280;34426;52.180;4.462;2023-09-19T07:50:46;100894.59;;;16.67;74.82
48630;BME280;34426;52.180;4.462;2023-09-19T07:53:12;100896.28;;;16.68;75.83
48630;BME280;34426;52.180;4.462;2023-09-19T07:55:37;100899.03;;;16.73;76.51
48630;BME280;34426;52.180;4.462;2023-09-19T07:58:03;100893.16;;;16.69;76.76
48630;BME280;34426;52.180;4.462;2023-09-19T08:00:30;100881.84;;;16.69;77.30
48630;BME280;34426;52.180;4.462;2023-09-19T08:02:55;100882.69;;;16.70;77.44
48630;BME280;34426;52.180;4.462;2023-09-19T08:05:21;100869.16;;;16.85;77.48
48630;BME280;34426;52.180;4.462;2023-09-19T08:07:46;100871.84;;;16.90;77.56
48630;BME280;34426;52.180;4.462;2023-09-19T08:10:12;100862.97;;;16.83;77.21
48630;BME280;34426;52.180;4.462;2023-09-19T08:12:37;100863.88;;;16.79;77.07
48630;BME280;34426;52.180;4.462;2023-09-19T08:15:03;100854.88;;;16.77;77.40
48630;BME280;34426;52.180;4.462;2023-09-19T08:17:33;100869.00;;;16.77;77.47
48630;BME280;34426;52.180;4.462;2023-09-19T08:19:59;100855.06;;;16.67;77.66
48630;BME280;34426;52.180;4.462;2023-09-19T08:22:24;100869.94;;;16.72;77.52
48630;BME280;34426;52.180;4.462;2023-09-19T08:24:50;100859.31;;;16.83;77.29
48630;BME280;34426;52.180;4.462;2023-09-19T08:27:15;100863.44;;;16.72;77.82
48630;BME280;34426;52.180;4.462;2023-09-19T08:29:41;100874.56;;;16.82;77.49
48630;BME280;34426;52.180;4.462;2023-09-19T08:32:06;100876.88;;;16.80;77.60
48630;BME280;34426;52.180;4.462;2023-09-19T08:34:33;100883.13;;;16.77;77.26
48630;BME280;34426;52.180;4.462;2023-09-19T08:36:59;100903.44;;;16.79;76.62
48630;BME280;34426;52.180;4.462;2023-09-19T08:39:24;100885.13;;;16.76;76.57
48630;BME280;34426;52.180;4.462;2023-09-19T08:41:57;100878.94;;;16.74;76.57
48630;BME280;34426;52.180;4.462;2023-09-19T08:44:23;100874.97;;;16.75;76.72
48630;BME280;34426;52.180;4.462;2023-09-19T08:46:49;100874.34;;;16.78;76.96
48630;BME280;34426;52.180;4.462;2023-09-19T08:49:24;100879.34;;;16.68;76.67
48630;BME280;34426;52.180;4.462;2023-09-19T08:51:54;100879.25;;;16.54;78.22
48630;BME280;34426;52.180;4.462;2023-09-19T08:54:29;100877.56;;;16.53;78.36
48630;BME280;34426;52.180;4.462;2023-09-19T08:57:00;100882.91;;;16.54;78.79
48630;BME280;34426;52.180;4.462;2023-09-19T08:59:28;100885.19;;;16.52;78.92
48630;BME280;34426;52.180;4.462;2023-09-19T09:01:55;100880.88;;;16.41;79.50
48630;BME280;34426;52.180;4.462;2023-09-19T09:04:22;100879.78;;;16.56;80.01
48630;BME280;34426;52.180;4.462;2023-09-19T09:06:48;100877.72;;;16.61;79.93
48630;BME280;34426;52.180;4.462;2023-09-19T09:09:16;100874.88;;;16.61;79.57
48630;BME280;34426;52.180;4.462;2023-09-19T09:11:42;100868.84;;;16.87;79.36
48630;BME280;34426;52.180;4.462;2023-09-19T09:14:08;100865.19;;;17.00;78.95
48630;BME280;34426;52.180;4.462;2023-09-19T09:16:33;100851.38;;;16.99;78.60
48630;BME280;34426;52.180;4.462;2023-09-19T09:18:59;100851.19;;;17.09;78.47
48630;BME280;34426;52.180;4.462;2023-09-19T09:21:25;100859.78;;;17.17;77.11
48630;BME280;34426;52.180;4.462;2023-09-19T09:23:51;100842.91;;;17.40;75.43
48630;BME280;34426;52.180;4.462;2023-09-19T09:26:41;100869.94;;;17.46;75.23
48630;BME280;34426;52.180;4.462;2023-09-19T09:29:07;100875.19;;;17.52;74.33
48630;BME280;34426;52.180;4.462;2023-09-19T09:31:32;100840.00;;;17.45;74.54
48630;BME280;34426;52.180;4.462;2023-09-19T09:33:58;100842.81;;;17.45;74.69
48630;BME280;34426;52.180;4.462;2023-09-19T09:36:36;100849.50;;;17.49;74.84
48630;BME280;34426;52.180;4.462;2023-09-19T09:39:02;100842.50;;;17.60;75.09
48630;BME280;34426;52.180;4.462;2023-09-19T09:41:37;100835.72;;;17.75;73.80
48630;BME280;34426;52.180;4.462;2023-09-19T09:44:12;100849.28;;;17.86;73.25
48630;BME280;34426;52.180;4.462;2023-09-19T09:46:42;100836.72;;;17.92;73.79
48630;BME280;34426;52.180;4.462;2023-09-19T09:49:10;100836.06;;;17.95;73.10
48630;BME280;34426;52.180;4.462;2023-09-19T09:51:35;100841.88;;;17.77;72.90
48630;BME280;34426;52.180;4.462;2023-09-19T09:54:10;100840.91;;;17.81;73.27
48630;BME280;34426;52.180;4.462;2023-09-19T09:56:52;100837.47;;;17.84;73.01
48630;BME280;34426;52.180;4.462;2023-09-19T09:59:17;100837.47;;;17.84;72.80
48630;BME280;34426;52.180;4.462;2023-09-19T10:01:46;100830.41;;;17.95;73.36
48630;BME280;34426;52.180;4.462;2023-09-19T10:04:27;100806.09;;;17.94;72.86
48630;BME280;34426;52.180;4.462;2023-09-19T10:06:52;100817.31;;;18.00;72.89
48630;BME280;34426;52.180;4.462;2023-09-19T10:09:18;100821.41;;;17.93;72.74
48630;BME280;34426;52.180;4.462;2023-09-19T10:11:46;100810.59;;;17.95;73.17
48630;BME280;34426;52.180;4.462;2023-09-19T10:14:15;100815.03;;;17.88;73.57
48630;BME280;34426;52.180;4.462;2023-09-19T10:16:45;100817.22;;;17.91;73.64
48630;BME280;34426;52.180;4.462;2023-09-19T10:19:14;100802.91;;;17.74;73.71
48630;BME280;34426;52.180;4.462;2023-09-19T10:21:40;100810.41;;;17.78;73.60
48630;BME280;34426;52.180;4.462;2023-09-19T10:24:08;100808.28;;;17.98;73.72
48630;BME280;34426;52.180;4.462;2023-09-19T10:26:34;100801.97;;;18.14;73.09
48630;BME280;34426;52.180;4.462;2023-09-19T10:29:03;100809.63;;;18.14;72.96
48630;BME280;34426;52.180;4.462;2023-09-19T10:31:31;100796.72;;;18.30;71.85
48630;BME280;34426;52.180;4.462;2023-09-19T10:33:58;100794.28;;;18.37;71.15
48630;BME280;34426;52.180;4.462;2023-09-19T10:36:24;100802.28;;;18.35;71.01
48630;BME280;34426;52.180;4.462;2023-09-19T10:38:50;100791.84;;;18.44;71.04
48630;BME280;34426;52.180;4.462;2023-09-19T10:41:20;100803.88;;;18.27;71.44
48630;BME280;34426;52.180;4.462;2023-09-19T10:43:48;100780.38;;;18.05;72.42
48630;BME280;34426;52.180;4.462;2023-09-19T10:46:15;100780.50;;;18.00;72.93
48630;BME280;34426;52.180;4.462;2023-09-19T10:48:41;100795.19;;;18.02;73.20
48630;BME280;34426;52.180;4.462;2023-09-19T10:51:09;100794.03;;;18.03;73.80
48630;BME280;34426;52.180;4.462;2023-09-19T10:53:43;100799.13;;;18.14;73.15
48630;BME280;34426;52.180;4.462;2023-09-19T10:56:10;100784.31;;;18.40;72.43
48630;BME280;34426;52.180;4.462;2023-09-19T10:58:42;100771.13;;;18.35;72.40
48630;BME280;34426;52.180;4.462;2023-09-19T11:01:08;100772.03;;;18.44;72.17
48630;BME280;34426;52.180;4.462;2023-09-19T11:03:35;100767.44;;;18.57;71.93
48630;BME280;34426;52.180;4.462;2023-09-19T11:06:05;100773.34;;;18.60;71.48
48630;BME280;34426;52.180;4.462;2023-09-19T11:08:31;100767.59;;;18.52;72.22
48630;BME280;34426;52.180;4.462;2023-09-19T11:11:43;100775.25;;;18.29;71.97
48630;BME280;34426;52.180;4.462;2023-09-19T11:14:28;100759.94;;;18.08;72.50
48630;BME280;34426;52.180;4.462;2023-09-19T11:20:22;100772.66;;;18.41;72.56
48630;BME280;34426;52.180;4.462;2023-09-19T11:23:23;100775.75;;;18.53;72.74
48630;BME280;34426;52.180;4.462;2023-09-19T11:25:50;100768.41;;;18.30;73.08
48630;BME280;34426;52.180;4.462;2023-09-19T11:28:33;100765.47;;;18.13;74.11
48630;BME280;34426;52.180;4.462;2023-09-19T11:31:41;100769.72;;;18.02;74.96
48630;BME280;34426;52.180;4.462;2023-09-19T11:34:40;100789.78;;;17.78;78.68
48630;BME280;34426;52.180;4.462;2023-09-19T11:40:09;100767.19;;;17.37;81.98
48630;BME280;34426;52.180;4.462;2023-09-19T11:42:42;100778.09;;;17.43;79.99
48630;BME280;34426;52.180;4.462;2023-09-19T11:45:07;100779.34;;;17.51;80.27
48630;BME280;34426;52.180;4.462;2023-09-19T11:47:53;100775.97;;;17.62;81.45
48630;BME280;34426;52.180;4.462;2023-09-19T11:50:20;100762.78;;;17.58;80.79
48630;BME280;34426;52.180;4.462;2023-09-19T11:52:47;100769.47;;;17.62;80.72
48630;BME280;34426;52.180;4.462;2023-09-19T11:55:14;100808.88;;;17.58;80.37
48630;BME280;34426;52.180;4.462;2023-09-19T11:57:39;100782.69;;;17.39;83.60
48630;BME280;34426;52.180;4.462;2023-09-19T12:00:06;100804.28;;;17.08;86.38
48630;BME280;34426;52.180;4.462;2023-09-19T12:02:38;100769.94;;;17.01;89.17
48630;BME280;34426;52.180;4.462;2023-09-19T12:05:04;100776.00;;;16.80;91.04
48630;BME280;34426;52.180;4.462;2023-09-19T12:07:42;100787.09;;;16.77;92.81
48630;BME280;34426;52.180;4.462;2023-09-19T12:10:08;100768.78;;;16.55;94.11
48630;BME280;34426;52.180;4.462;2023-09-19T12:12:35;100771.47;;;16.66;94.48
48630;BME280;34426;52.180;4.462;2023-09-19T12:15:00;100775.38;;;16.83;93.51
48630;BME280;34426;52.180;4.462;2023-09-19T12:17:35;100769.41;;;16.99;92.49
48630;BME280;34426;52.180;4.462;2023-09-19T12:20:00;100770.59;;;17.25;91.08
48630;BME280;34426;52.180;4.462;2023-09-19T12:22:39;100767.63;;;17.44;87.53
48630;BME280;34426;52.180;4.462;2023-09-19T12:25:06;100774.31;;;17.75;85.83
48630;BME280;34426;52.180;4.462;2023-09-19T12:27:43;100765.91;;;18.06;82.91
48630;BME280;34426;52.180;4.462;2023-09-19T12:30:09;100764.94;;;18.55;81.20
48630;BME280;34426;52.180;4.462;2023-09-19T12:32:35;100779.53;;;18.63;79.74
48630;BME280;34426;52.180;4.462;2023-09-19T12:35:01;100765.50;;;18.66;77.56
48630;BME280;34426;52.180;4.462;2023-09-19T12:37:26;100759.06;;;19.05;75.54
48630;BME280;34426;52.180;4.462;2023-09-19T12:39:52;100756.66;;;19.38;74.62
48630;BME280;34426;52.180;4.462;2023-09-19T12:42:19;100725.03;;;19.05;73.09
48630;BME280;34426;52.180;4.462;2023-09-19T12:44:49;100745.63;;;18.88;74.40
48630;BME280;34426;52.180;4.462;2023-09-19T12:47:16;100749.84;;;18.69;74.86
48630;BME280;34426;52.180;4.462;2023-09-19T12:50:11;100744.31;;;18.64;74.65
48630;BME280;34426;52.180;4.462;2023-09-19T12:52:37;100746.94;;;18.82;74.24
48630;BME280;34426;52.180;4.462;2023-09-19T12:55:02;100732.06;;;18.77;74.17
48630;BME280;34426;52.180;4.462;2023-09-19T12:57:28;100754.03;;;18.71;74.45
48630;BME280;34426;52.180;4.462;2023-09-19T12:59:55;100753.34;;;18.66;75.14